Time;durP1;ratioP1;P1;durP2;ratioP2;P2;SDS_P1;SDS_P2;PMS_P1;PMS_P2;Temp;Humidity;BMP_temperature;BMP_pressure;BME280_temperature;BME280_humidity;BME280_pressure;Samples;Min_cycle;Max_cycle;Signal;HPM_P1;HPM_P2
2023/01/18 00:02:13;;;;;;;6.13;4.22;;;;;5.70;98872.00;;;;5055930;28;20199;-76
2023/01/18 00:04:42;;;;;;;7.00;4.50;;;;;5.70;98872.00;;;;5055964;28;20206;-76
2023/01/18 00:07:10;;;;;;;6.03;3.88;;;;;5.70;98872.00;;;;5049411;28;20211;-76
2023/01/18 00:09:37;;;;;;;5.55;4.28;;;;;5.60;98869.00;;;;5053118;28;20218;-76
2023/01/18 00:12:05;;;;;;;5.35;3.97;;;;;5.60;98872.00;;;;5048783;28;20200;-76
2023/01/18 00:14:32;;;;;;;5.88;3.85;;;;;5.60;98870.00;;;;5067693;28;20207;-76
2023/01/18 00:17:00;;;;;;;5.55;3.72;;;;;5.60;98871.00;;;;5056662;28;20215;-76
2023/01/18 00:19:27;;;;;;;5.45;4.32;;;;;5.60;98880.00;;;;5049995;28;20192;-76
2023/01/18 00:21:56;;;;;;;4.80;3.45;;;;;5.60;98876.00;;;;5049432;28;20282;-76
2023/01/18 00:24:26;;;;;;;4.75;3.45;;;;;5.60;98878.00;;;;5053302;28;20661;-76
2023/01/18 00:26:54;;;;;;;5.97;3.25;;;;;5.60;98885.00;;;;5057744;28;20196;-76
2023/01/18 00:29:21;;;;;;;4.40;3.10;;;;;5.60;98875.00;;;;5049894;28;20219;-76
2023/01/18 00:31:48;;;;;;;5.22;3.42;;;;;5.60;98874.00;;;;5050191;28;20200;-75
2023/01/18 00:34:15;;;;;;;5.50;3.55;;;;;5.60;98886.00;;;;5048797;28;20203;-76
2023/01/18 00:36:43;;;;;;;7.63;3.67;;;;;5.60;98888.00;;;;5048911;28;20195;-76
2023/01/18 00:39:14;;;;;;;4.60;3.47;;;;;5.50;98881.00;;;;5049137;28;20195;-76
2023/01/18 00:43:37;;;;;;;6.45;4.32;;;;;5.50;98879.00;;;;5047672;28;20215;-76
2023/01/18 00:44:27;;;;;;;4.82;3.50;;;;;5.50;98876.00;;;;5049512;28;20365;-76
2023/01/18 00:46:55;;;;;;;5.03;3.55;;;;;5.50;98878.00;;;;5049772;28;20242;-76
2023/01/18 00:49:24;;;;;;;4.13;3.15;;;;;5.50;98880.00;;;;5049053;28;20224;-76
2023/01/18 00:51:51;;;;;;;4.03;3.15;;;;;5.50;98882.00;;;;5049748;28;20214;-76
2023/01/18 00:54:21;;;;;;;6.65;3.50;;;;;5.50;98884.00;;;;5052042;28;20196;-76
2023/01/18 00:56:48;;;;;;;5.40;3.58;;;;;5.50;98876.00;;;;5048266;28;20202;-76
2023/01/18 00:59:15;;;;;;;6.53;3.55;;;;;5.50;98880.00;;;;5047731;28;20204;-76
2023/01/18 01:01:44;;;;;;;6.00;3.20;;;;;5.50;98887.00;;;;5056505;28;21079;-76
2023/01/18 01:06:56;;;;;;;13.13;3.55;;;;;5.40;98889.00;;;;5052291;28;20207;-76
2023/01/18 01:09:26;;;;;;;7.25;4.32;;;;;5.40;98891.00;;;;5061721;28;20223;-76
2023/01/18 01:26:07;;;;;;;5.65;3.28;;;;;5.30;98892.00;;;;5052168;28;20225;-76
2023/01/18 01:28:35;;;;;;;4.55;3.70;;;;;5.30;98889.00;;;;5048352;28;20693;-76
2023/01/18 01:31:04;;;;;;;5.60;4.10;;;;;5.30;98892.00;;;;5050072;28;20262;-76
2023/01/18 01:33:33;;;;;;;4.90;3.80;;;;;5.30;98900.00;;;;5047921;28;20200;-76
2023/01/18 01:36:02;;;;;;;6.97;4.05;;;;;5.30;98900.00;;;;5055016;28;20695;-76
2023/01/18 01:38:30;;;;;;;4.80;3.88;;;;;5.30;98903.00;;;;5057571;28;20199;-76
2023/01/18 01:41:01;;;;;;;7.43;5.13;;;;;5.30;98909.00;;;;5051430;28;20215;-76
2023/01/18 01:43:43;;;;;;;9.00;5.78;;;;;5.20;98906.00;;;;5053100;28;20199;-76
2023/01/18 01:46:24;;;;;;;7.30;5.95;;;;;5.20;98913.00;;;;5049329;28;20816;-76
2023/01/18 01:48:55;;;;;;;8.25;5.65;;;;;5.30;98916.00;;;;5048393;28;20676;-76
2023/01/18 01:51:23;;;;;;;8.80;5.20;;;;;5.30;98915.00;;;;5053938;28;20227;-76
2023/01/18 01:53:51;;;;;;;6.13;4.15;;;;;5.20;98913.00;;;;5048265;28;20199;-76
2023/01/18 01:56:21;;;;;;;7.80;4.32;;;;;5.20;98918.00;;;;5062541;28;20222;-74
2023/01/18 01:58:53;;;;;;;5.65;3.88;;;;;5.20;98930.00;;;;5057519;28;20210;-74
2023/01/18 02:01:20;;;;;;;5.53;3.55;;;;;5.20;98920.00;;;;5059855;28;20192;-74
2023/01/18 02:03:48;;;;;;;5.88;4.18;;;;;5.20;98925.00;;;;5063360;28;20207;-74
2023/01/18 02:06:30;;;;;;;5.30;3.95;;;;;5.20;98916.00;;;;5059081;28;20199;-75
2023/01/18 02:08:59;;;;;;;5.50;3.72;;;;;5.20;98927.00;;;;5063362;28;20541;-75
2023/01/18 02:11:29;;;;;;;5.80;4.28;;;;;5.20;98934.00;;;;5048675;28;20211;-74
2023/01/18 02:13:58;;;;;;;9.20;3.50;;;;;5.20;98933.00;;;;5068472;28;20252;-74
2023/01/18 02:16:43;;;;;;;4.10;3.20;;;;;5.20;98936.00;;;;5058480;28;20203;-74
2023/01/18 02:19:30;;;;;;;5.97;3.20;;;;;5.10;98934.00;;;;5057609;28;20195;-74
2023/01/18 02:22:02;;;;;;;6.80;3.78;;;;;5.20;98949.00;;;;5048489;28;20541;-74
2023/01/18 02:25:25;;;;;;;6.88;3.63;;;;;5.10;98943.00;;;;5052796;28;20688;-74
2023/01/18 02:28:10;;;;;;;5.47;3.50;;;;;5.10;98941.00;;;;4980746;28;20202;-74
2023/01/18 02:30:41;;;;;;;5.05;3.40;;;;;5.10;98936.00;;;;5064749;28;20214;-75
2023/01/18 02:33:15;;;;;;;4.80;3.25;;;;;5.10;98945.00;;;;5047700;28;20195;-75
2023/01/18 02:35:50;;;;;;;4.78;3.92;;;;;5.10;98941.00;;;;5063856;28;20198;-75
2023/01/18 02:38:23;;;;;;;6.43;3.92;;;;;5.10;98950.00;;;;5049924;28;20203;-75
2023/01/18 02:41:04;;;;;;;4.63;3.50;;;;;5.10;98941.00;;;;5054833;28;20314;-75
2023/01/18 02:46:37;;;;;;;5.38;3.65;;;;;5.10;98958.00;;;;5051667;28;20238;-75
2023/01/18 02:49:08;;;;;;;6.38;3.80;;;;;5.10;98952.00;;;;5048180;28;20203;-75
2023/01/18 02:51:36;;;;;;;5.55;3.88;;;;;5.10;98960.00;;;;5049816;28;20235;-75
2023/01/18 02:54:06;;;;;;;7.30;3.70;;;;;5.10;98954.00;;;;5048072;28;20683;-75
2023/01/18 02:56:38;;;;;;;5.78;3.45;;;;;5.10;98947.00;;;;5049425;28;20580;-75
2023/01/18 02:59:11;;;;;;;7.18;4.07;;;;;5.10;98951.00;;;;5051992;28;20218;-75
2023/01/18 03:01:43;;;;;;;4.70;3.50;;;;;5.10;98951.00;;;;5052909;28;20204;-76
2023/01/18 03:04:15;;;;;;;4.65;3.58;;;;;5.10;98946.00;;;;5051385;28;20218;-76
2023/01/18 03:06:47;;;;;;;6.90;4.03;;;;;5.10;98960.00;;;;5051907;28;20199;-75
2023/01/18 03:09:17;;;;;;;6.78;3.88;;;;;5.10;98943.00;;;;5068273;28;20203;-75
2023/01/18 03:11:52;;;;;;;6.00;3.92;;;;;5.10;98941.00;;;;5051898;28;20325;-75
2023/01/18 03:14:30;;;;;;;6.25;4.05;;;;;5.00;98949.00;;;;5052258;28;20202;-75
2023/01/18 03:17:04;;;;;;;9.40;4.10;;;;;5.00;98945.00;;;;5050887;28;20280;-75
2023/01/18 03:23:36;;;;;;;5.60;4.30;;;;;5.00;98950.00;;;;5051253;28;20215;-75
2023/01/18 03:25:18;;;;;;;6.38;4.03;;;;;5.00;98950.00;;;;5051742;28;20638;-75
2023/01/18 03:33:44;;;;;;;5.80;3.92;;;;;5.00;98951.00;;;;5050429;28;20198;-76
2023/01/18 03:36:17;;;;;;;6.28;4.10;;;;;4.90;98959.00;;;;5051380;28;20242;-76
2023/01/18 03:38:47;;;;;;;6.70;3.70;;;;;5.00;98961.00;;;;5063898;28;20260;-75
2023/01/18 03:41:16;;;;;;;5.95;4.25;;;;;5.00;98961.00;;;;5056063;28;20227;-75
2023/01/18 03:43:44;;;;;;;5.85;3.80;;;;;5.00;98959.00;;;;5057015;28;20403;-75
2023/01/18 03:46:15;;;;;;;6.50;4.65;;;;;4.90;98954.00;;;;5058558;28;20758;-75
2023/01/18 03:48:42;;;;;;;5.57;4.28;;;;;5.00;98963.00;;;;5053953;28;20692;-75
2023/01/18 03:51:15;;;;;;;6.43;4.13;;;;;4.90;98956.00;;;;5058907;28;20214;-76
2023/01/18 03:53:47;;;;;;;6.30;4.30;;;;;4.90;98961.00;;;;5054393;28;20238;-76
2023/01/18 03:56:19;;;;;;;9.80;4.78;;;;;4.90;98953.00;;;;5050407;28;20206;-76
2023/01/18 03:58:48;;;;;;;7.85;4.85;;;;;4.90;98957.00;;;;5054392;28;20646;-75
2023/01/18 04:01:17;;;;;;;7.55;4.65;;;;;4.90;98953.00;;;;5050509;28;20567;-75
2023/01/18 04:03:44;;;;;;;7.82;5.00;;;;;4.90;98966.00;;;;5053889;28;20206;-75
2023/01/18 04:06:12;;;;;;;6.80;4.95;;;;;4.90;98959.00;;;;5053838;28;20195;-75
2023/01/18 04:08:39;;;;;;;6.90;5.00;;;;;4.90;98965.00;;;;5056852;28;20408;-75
2023/01/18 04:11:06;;;;;;;8.13;5.20;;;;;4.90;98969.00;;;;5052982;28;20226;-76
2023/01/18 04:13:34;;;;;;;8.88;4.90;;;;;4.90;98970.00;;;;5054474;28;20204;-75
2023/01/18 04:16:01;;;;;;;6.38;4.68;;;;;4.90;98968.00;;;;5057018;28;20206;-75
2023/01/18 04:18:30;;;;;;;6.45;4.57;;;;;4.90;98977.00;;;;5069736;28;20198;-75
2023/01/18 04:20:57;;;;;;;4.95;3.88;;;;;4.90;98973.00;;;;5057313;28;20204;-75
2023/01/18 04:23:25;;;;;;;6.97;4.63;;;;;4.90;98980.00;;;;5050586;28;20245;-75
2023/01/18 04:25:52;;;;;;;8.43;4.50;;;;;4.90;98981.00;;;;5059136;28;20196;-75
2023/01/18 04:28:24;;;;;;;7.32;4.53;;;;;4.90;98983.00;;;;5049916;28;20207;-75
2023/01/18 04:30:51;;;;;;;7.90;4.90;;;;;4.90;98980.00;;;;5050054;28;20237;-76
2023/01/18 04:33:19;;;;;;;5.68;4.30;;;;;4.90;98979.00;;;;5057659;28;20198;-75
2023/01/18 04:35:48;;;;;;;7.13;4.93;;;;;4.90;98984.00;;;;5054567;28;20199;-75
2023/01/18 04:38:16;;;;;;;7.70;4.78;;;;;4.90;98990.00;;;;5049165;28;20203;-76
2023/01/18 04:40:43;;;;;;;6.78;4.45;;;;;4.90;98986.00;;;;5055588;28;20218;-75
2023/01/18 04:43:10;;;;;;;5.75;4.22;;;;;4.90;98992.00;;;;5057201;28;20199;-76
2023/01/18 04:45:38;;;;;;;8.20;4.75;;;;;4.90;98989.00;;;;5056517;28;20232;-76
2023/01/18 04:48:05;;;;;;;6.97;4.45;;;;;4.90;98996.00;;;;5056374;28;20199;-76
2023/01/18 04:50:33;;;;;;;6.28;4.57;;;;;4.80;99006.00;;;;5052300;28;20199;-76
2023/01/18 04:53:01;;;;;;;7.43;4.45;;;;;4.80;98997.00;;;;5053303;28;20235;-76
2023/01/18 04:55:29;;;;;;;7.03;4.30;;;;;4.80;99006.00;;;;5059200;28;20199;-76
2023/01/18 04:57:56;;;;;;;5.68;3.95;;;;;4.80;98997.00;;;;5055221;28;20203;-76
2023/01/18 05:00:24;;;;;;;7.60;4.80;;;;;4.80;99003.00;;;;5052042;28;20195;-76
2023/01/18 05:02:51;;;;;;;5.93;4.07;;;;;4.80;99007.00;;;;5051819;28;20203;-76
2023/01/18 05:05:19;;;;;;;6.07;4.40;;;;;4.80;99008.00;;;;5050775;28;20211;-76
2023/01/18 05:07:46;;;;;;;8.43;4.85;;;;;4.80;99007.00;;;;5056798;28;20203;-76
2023/01/18 05:10:15;;;;;;;6.38;3.97;;;;;4.80;99009.00;;;;5052597;28;20196;-76
2023/01/18 05:12:42;;;;;;;6.65;4.43;;;;;4.80;99024.00;;;;5049367;28;20211;-76
2023/01/18 05:15:10;;;;;;;5.18;3.88;;;;;4.80;99015.00;;;;5064068;28;20188;-76
2023/01/18 05:17:37;;;;;;;6.93;4.82;;;;;4.80;99014.00;;;;5061668;28;20187;-75
2023/01/18 05:20:06;;;;;;;6.05;4.30;;;;;4.80;99008.00;;;;5048364;28;20206;-76
2023/01/18 05:22:35;;;;;;;7.43;4.30;;;;;4.80;99017.00;;;;5047898;28;20617;-76
2023/01/18 05:25:03;;;;;;;5.72;4.15;;;;;4.80;99025.00;;;;5062543;28;20657;-76
2023/01/18 05:27:32;;;;;;;7.35;4.22;;;;;4.80;99025.00;;;;5051244;28;20203;-76
2023/01/18 05:30:00;;;;;;;6.07;4.60;;;;;4.80;99030.00;;;;5048116;28;20574;-76
2023/01/18 05:32:27;;;;;;;6.38;4.45;;;;;4.90;99024.00;;;;5062913;28;20230;-76
2023/01/18 05:34:55;;;;;;;6.25;4.57;;;;;4.90;99035.00;;;;5048588;28;20199;-76
2023/01/18 05:37:22;;;;;;;6.70;5.28;;;;;4.90;99031.00;;;;5056268;28;20203;-76
2023/01/18 05:39:49;;;;;;;6.72;4.57;;;;;4.90;99034.00;;;;5049091;28;20226;-76
2023/01/18 05:42:16;;;;;;;6.15;4.38;;;;;4.90;99041.00;;;;5056591;28;20219;-76
2023/01/18 05:44:45;;;;;;;6.32;4.57;;;;;4.90;99035.00;;;;5048888;28;20265;-76
2023/01/18 05:47:12;;;;;;;5.93;3.90;;;;;4.90;99035.00;;;;5048879;28;20227;-76
2023/01/18 05:49:40;;;;;;;6.35;4.20;;;;;4.90;99037.00;;;;5050796;28;20192;-76
2023/01/18 05:52:08;;;;;;;7.53;4.05;;;;;4.90;99039.00;;;;5061640;28;20289;-76
2023/01/18 05:54:35;;;;;;;7.03;4.20;;;;;4.90;99047.00;;;;5049034;28;20203;-76
2023/01/18 05:57:02;;;;;;;7.55;4.70;;;;;4.90;99048.00;;;;5055104;28;20195;-76
2023/01/18 05:59:30;;;;;;;5.82;4.15;;;;;4.90;99047.00;;;;5049067;28;20199;-76
2023/01/18 06:01:58;;;;;;;5.97;4.03;;;;;4.90;99056.00;;;;5047572;28;20202;-76
2023/01/18 06:04:26;;;;;;;6.80;4.22;;;;;4.90;99061.00;;;;5047458;28;20212;-76
2023/01/18 06:06:53;;;;;;;5.90;4.55;;;;;4.90;99062.00;;;;5051156;28;20210;-76
2023/01/18 06:09:21;;;;;;;5.82;4.38;;;;;4.90;99065.00;;;;5063510;28;21091;-76
2023/01/18 06:11:48;;;;;;;6.15;3.92;;;;;4.90;99061.00;;;;5053099;28;20211;-76
2023/01/18 06:14:16;;;;;;;6.68;4.03;;;;;4.90;99060.00;;;;5048416;28;20200;-75
2023/01/18 06:16:43;;;;;;;5.50;3.80;;;;;4.90;99070.00;;;;5052856;28;20211;-76
2023/01/18 06:19:12;;;;;;;5.57;4.05;;;;;4.90;99069.00;;;;5047572;28;20356;-76
2023/01/18 06:21:39;;;;;;;7.63;4.55;;;;;4.90;99072.00;;;;5051058;28;20210;-76
2023/01/18 06:24:07;;;;;;;4.93;3.80;;;;;4.90;99069.00;;;;5054026;28;20600;-76
2023/01/18 06:26:34;;;;;;;5.20;3.88;;;;;4.90;99077.00;;;;5054190;28;20741;-76
2023/01/18 06:29:07;;;;;;;6.53;3.83;;;;;4.90;99083.00;;;;5056806;28;20203;-76
2023/01/18 06:31:34;;;;;;;6.07;3.92;;;;;4.90;99085.00;;;;5055574;28;20231;-76
2023/01/18 06:34:08;;;;;;;7.55;4.15;;;;;4.90;99089.00;;;;5066778;28;20211;-75
2023/01/18 06:36:36;;;;;;;5.63;3.97;;;;;4.90;99090.00;;;;5059074;28;20203;-76
2023/01/18 06:39:04;;;;;;;5.25;3.88;;;;;5.00;99092.00;;;;5068591;28;20187;-76
2023/01/18 06:41:32;;;;;;;5.05;3.63;;;;;5.00;99098.00;;;;5060460;28;20219;-76
2023/01/18 06:43:59;;;;;;;4.75;3.72;;;;;5.00;99098.00;;;;5054268;28;20206;-76
2023/01/18 06:46:27;;;;;;;5.00;3.88;;;;;5.10;99122.00;;;;5064951;28;20256;-76
2023/01/18 06:48:55;;;;;;;5.88;4.85;;;;;5.10;99122.00;;;;5054828;28;20203;-76
2023/01/18 06:51:22;;;;;;;6.00;4.32;;;;;5.20;99118.00;;;;5051994;28;20219;-76
2023/01/18 06:53:51;;;;;;;6.90;4.35;;;;;5.20;99119.00;;;;5058282;28;20286;-76
2023/01/18 06:56:18;;;;;;;6.55;4.20;;;;;5.20;99117.00;;;;5060664;28;20724;-76
2023/01/18 06:58:46;;;;;;;6.22;4.25;;;;;5.20;99119.00;;;;5067798;28;20207;-76
2023/01/18 07:01:14;;;;;;;5.70;4.00;;;;;5.20;99113.00;;;;5063509;28;20665;-75
2023/01/18 07:03:41;;;;;;;6.25;4.20;;;;;5.30;99117.00;;;;5070700;28;20191;-77
2023/01/18 07:06:08;;;;;;;7.25;5.10;;;;;5.30;99122.00;;;;5055240;28;20207;-76
2023/01/18 07:08:35;;;;;;;6.65;4.53;;;;;5.30;99126.00;;;;5054172;28;20202;-76
2023/01/18 07:11:09;;;;;;;5.95;4.05;;;;;5.30;99128.00;;;;5067613;28;20206;-75
2023/01/18 07:13:38;;;;;;;5.28;4.03;;;;;5.30;99132.00;;;;5063038;28;20200;-76
2023/01/18 07:16:07;;;;;;;5.82;4.10;;;;;5.40;99134.00;;;;5055975;28;20203;-76
2023/01/18 07:18:34;;;;;;;6.47;4.28;;;;;5.40;99136.00;;;;5065773;28;20199;-75
2023/01/18 07:21:05;;;;;;;6.93;4.30;;;;;5.40;99139.00;;;;5052686;28;20200;-76
2023/01/18 07:23:35;;;;;;;5.32;3.80;;;;;5.30;99143.00;;;;5058347;28;20287;-76
2023/01/18 07:26:04;;;;;;;5.68;4.10;;;;;5.40;99137.00;;;;5064640;28;20206;-75
2023/01/18 07:28:34;;;;;;;6.50;4.00;;;;;5.40;99148.00;;;;5055950;28;20204;-76
2023/01/18 07:31:02;;;;;;;7.05;4.97;;;;;5.40;99142.00;;;;5054436;28;20206;-76
2023/01/18 07:33:30;;;;;;;6.90;4.53;;;;;5.40;99145.00;;;;5051174;28;20226;-76
2023/01/18 07:35:58;;;;;;;6.70;4.35;;;;;5.40;99144.00;;;;5056668;28;20662;-76
2023/01/18 07:38:26;;;;;;;8.38;4.65;;;;;5.40;99144.00;;;;5051236;28;20700;-76
2023/01/18 07:41:00;;;;;;;12.38;5.40;;;;;5.40;99159.00;;;;5059106;28;20226;-76
2023/01/18 07:43:28;;;;;;;10.57;5.93;;;;;5.40;99154.00;;;;5056219;28;20202;-76
2023/01/18 07:45:57;;;;;;;9.27;5.80;;;;;5.40;99166.00;;;;5054409;28;20231;-76
2023/01/18 07:48:25;;;;;;;10.32;6.47;;;;;5.40;99167.00;;;;5051866;28;20211;-76
2023/01/18 07:50:54;;;;;;;9.15;5.38;;;;;5.40;99166.00;;;;5050873;28;20219;-77
2023/01/18 07:53:21;;;;;;;10.88;5.35;;;;;5.40;99163.00;;;;5057108;28;20223;-76
2023/01/18 07:55:49;;;;;;;7.88;5.13;;;;;5.40;99168.00;;;;5056108;28;20199;-75
2023/01/18 07:58:17;;;;;;;8.32;5.43;;;;;5.40;99169.00;;;;5053126;28;20200;-76
2023/01/18 08:00:44;;;;;;;10.23;5.20;;;;;5.40;99175.00;;;;5051987;28;20196;-76
2023/01/18 08:03:14;;;;;;;8.63;5.43;;;;;5.40;99170.00;;;;5054346;28;20202;-76
2023/01/18 08:05:42;;;;;;;6.63;4.90;;;;;5.40;99167.00;;;;5049778;28;20255;-76
2023/01/18 08:08:11;;;;;;;9.48;5.22;;;;;5.40;99178.00;;;;5052118;28;20235;-76
2023/01/18 08:10:39;;;;;;;7.90;4.88;;;;;5.40;99189.00;;;;5060152;28;20272;-76
2023/01/18 08:13:08;;;;;;;7.10;4.47;;;;;5.40;99188.00;;;;5055821;28;20610;-76
2023/01/18 08:15:35;;;;;;;7.82;4.68;;;;;5.40;99188.00;;;;5049433;28;20204;-75
2023/01/18 08:18:03;;;;;;;7.28;5.03;;;;;5.40;99190.00;;;;5052323;28;20200;-75
2023/01/18 08:20:32;;;;;;;7.72;4.78;;;;;5.50;99202.00;;;;5057273;28;20202;-76
2023/01/18 08:23:01;;;;;;;14.15;4.15;;;;;5.50;99199.00;;;;5058796;28;20206;-75
2023/01/18 08:25:30;;;;;;;7.00;4.30;;;;;5.50;99207.00;;;;5056738;28;20769;-75
2023/01/18 08:27:59;;;;;;;5.70;4.05;;;;;5.50;99206.00;;;;5062788;28;20204;-76
2023/01/18 08:30:27;;;;;;;7.03;4.38;;;;;5.50;99218.00;;;;5052408;28;20202;-76
2023/01/18 08:32:56;;;;;;;10.35;4.20;;;;;5.60;99223.00;;;;5062568;28;20219;-77
2023/01/18 08:35:24;;;;;;;7.78;4.85;;;;;5.60;99217.00;;;;5055702;28;20200;-76
2023/01/18 08:37:53;;;;;;;7.97;4.63;;;;;5.60;99218.00;;;;5051691;28;20215;-76
2023/01/18 08:40:22;;;;;;;7.70;4.50;;;;;5.70;99223.00;;;;5049991;28;20645;-76
2023/01/18 08:42:49;;;;;;;6.07;4.45;;;;;5.70;99224.00;;;;5054418;28;20222;-76
2023/01/18 08:45:17;;;;;;;7.32;4.75;;;;;5.70;99220.00;;;;5055440;28;20739;-76
2023/01/18 08:47:45;;;;;;;6.70;4.47;;;;;5.70;99225.00;;;;5050708;28;20203;-76
2023/01/18 08:50:13;;;;;;;6.97;4.70;;;;;5.70;99230.00;;;;5065637;28;20202;-76
2023/01/18 08:52:40;;;;;;;6.22;4.45;;;;;5.80;99230.00;;;;5059935;28;20223;-76
2023/01/18 08:55:10;;;;;;;5.82;4.10;;;;;5.80;99235.00;;;;5050560;28;20191;-76
2023/01/18 08:57:37;;;;;;;6.18;4.30;;;;;5.80;99234.00;;;;5051908;28;20206;-77
2023/01/18 09:00:06;;;;;;;7.78;4.65;;;;;5.90;99240.00;;;;5055308;28;20195;-77
2023/01/18 09:02:33;;;;;;;8.63;4.93;;;;;5.90;99241.00;;;;5051472;28;20191;-77
2023/01/18 09:05:00;;;;;;;10.13;4.80;;;;;5.90;99245.00;;;;5049130;28;20274;-77
2023/01/18 09:07:28;;;;;;;5.85;4.43;;;;;6.00;99243.00;;;;5049434;28;20203;-77
2023/01/18 09:09:55;;;;;;;5.80;4.53;;;;;6.00;99246.00;;;;5059903;28;20203;-76
2023/01/18 09:12:24;;;;;;;6.65;4.30;;;;;6.00;99246.00;;;;5053966;28;20226;-77
2023/01/18 09:14:52;;;;;;;7.50;4.43;;;;;6.10;99247.00;;;;5054586;28;20227;-76
2023/01/18 09:17:20;;;;;;;6.88;4.55;;;;;6.10;99254.00;;;;5059675;28;20198;-77
2023/01/18 09:19:47;;;;;;;6.65;4.63;;;;;6.20;99261.00;;;;5065405;28;20694;-77
2023/01/18 09:22:14;;;;;;;6.30;4.43;;;;;6.20;99258.00;;;;5057557;28;20207;-77
2023/01/18 09:24:43;;;;;;;6.05;4.65;;;;;6.20;99264.00;;;;5055738;28;20207;-77
2023/01/18 09:27:12;;;;;;;7.13;4.72;;;;;6.30;99272.00;;;;5057267;28;20200;-77
2023/01/18 09:29:42;;;;;;;7.35;4.65;;;;;6.30;99274.00;;;;5051210;28;20569;-77
2023/01/18 09:32:09;;;;;;;5.53;4.00;;;;;6.40;99276.00;;;;5048554;28;20219;-77
2023/01/18 09:34:37;;;;;;;6.88;4.63;;;;;6.40;99286.00;;;;5052827;28;20199;-76
2023/01/18 09:37:04;;;;;;;6.82;4.60;;;;;6.50;99287.00;;;;5049838;28;20676;-76
2023/01/18 09:39:32;;;;;;;7.47;5.38;;;;;6.50;99293.00;;;;5057158;28;20700;-76
2023/01/18 09:42:03;;;;;;;6.05;4.63;;;;;6.60;99287.00;;;;5055760;28;20650;-76
2023/01/18 09:44:33;;;;;;;7.93;5.30;;;;;6.60;99293.00;;;;5050874;28;20194;-76
2023/01/18 09:47:06;;;;;;;7.72;5.05;;;;;6.70;99286.00;;;;5047507;28;20230;-76
2023/01/18 09:49:37;;;;;;;8.10;4.53;;;;;6.70;99292.00;;;;5055327;28;20224;-75
2023/01/18 09:52:16;;;;;;;8.52;5.32;;;;;6.70;99292.00;;;;5061007;28;20285;-75
2023/01/18 09:54:52;;;;;;;7.50;5.25;;;;;6.80;99299.00;;;;5059233;28;20202;-76
2023/01/18 09:57:33;;;;;;;6.95;5.20;;;;;6.80;99296.00;;;;5058545;28;20230;-76
2023/01/18 10:00:03;;;;;;;7.25;5.22;;;;;6.90;99296.00;;;;5061295;28;20205;-76
2023/01/18 10:02:37;;;;;;;7.40;4.45;;;;;6.90;99304.00;;;;5049035;28;20200;-75
2023/01/18 10:05:09;;;;;;;7.03;4.60;;;;;7.00;99297.00;;;;5051203;28;20234;-76
2023/01/18 10:07:44;;;;;;;8.48;5.15;;;;;7.00;99307.00;;;;5046955;28;20579;-75
2023/01/18 10:10:17;;;;;;;7.20;4.93;;;;;7.10;99311.00;;;;5049878;28;20195;-76
2023/01/18 10:12:51;;;;;;;6.90;5.05;;;;;7.10;99307.00;;;;5048709;28;20254;-75
2023/01/18 10:15:21;;;;;;;7.22;4.80;;;;;7.20;99309.00;;;;5051657;28;20203;-75
2023/01/18 10:17:55;;;;;;;7.43;4.65;;;;;7.30;99306.00;;;;5062829;28;20891;-76
2023/01/18 10:20:32;;;;;;;6.93;4.60;;;;;7.30;99304.00;;;;5061998;28;20250;-76
2023/01/18 10:23:04;;;;;;;7.68;5.25;;;;;7.40;99293.00;;;;5061969;28;20207;-75
2023/01/18 10:25:36;;;;;;;7.97;5.18;;;;;7.40;99300.00;;;;5058358;28;20203;-76
2023/01/18 10:28:31;;;;;;;9.57;5.43;;;;;7.40;99305.00;;;;5050101;28;20203;-76
2023/01/18 10:31:09;;;;;;;7.65;4.78;;;;;7.50;99310.00;;;;5054318;28;20291;-76
2023/01/18 10:33:40;;;;;;;7.47;5.38;;;;;7.60;99307.00;;;;5051299;28;20261;-76
2023/01/18 10:36:13;;;;;;;7.50;5.22;;;;;7.60;99308.00;;;;5048724;28;20200;-76
2023/01/18 10:38:41;;;;;;;8.00;5.57;;;;;7.70;99298.00;;;;5052762;28;20195;-76
2023/01/18 10:41:18;;;;;;;8.00;4.88;;;;;7.70;99295.00;;;;5055009;28;20229;-76
2023/01/18 10:43:45;;;;;;;7.65;5.25;;;;;7.80;99292.00;;;;5048047;28;20211;-76
2023/01/18 10:46:15;;;;;;;8.38;5.97;;;;;7.90;99305.00;;;;5059827;28;20230;-76
2023/01/18 10:48:46;;;;;;;7.00;5.72;;;;;7.90;99291.00;;;;5062761;28;20215;-76
2023/01/18 10:51:26;;;;;;;9.52;5.38;;;;;7.90;99289.00;;;;5048978;28;20645;-76
2023/01/18 10:53:54;;;;;;;5.85;4.95;;;;;8.10;99294.00;;;;5044369;28;20223;-76
2023/01/18 10:56:23;;;;;;;7.53;5.15;;;;;8.20;99305.00;;;;5050010;28;20234;-76
2023/01/18 10:58:57;;;;;;;7.40;5.22;;;;;8.20;99297.00;;;;5047717;28;20227;-76
2023/01/18 11:01:27;;;;;;;7.80;4.78;;;;;8.20;99298.00;;;;5058511;28;20252;-76
2023/01/18 11:04:01;;;;;;;6.97;5.07;;;;;8.30;99317.00;;;;5058361;28;20195;-76
2023/01/18 11:06:29;;;;;;;7.72;4.93;;;;;8.30;99318.00;;;;5062912;28;20248;-76
2023/01/18 11:08:56;;;;;;;7.53;5.50;;;;;8.40;99319.00;;;;5062448;28;20203;-76
2023/01/18 11:14:25;;;;;;;7.47;5.38;;;;;8.40;99326.00;;;;5059057;28;20287;-75
2023/01/18 11:16:58;;;;;;;6.80;4.68;;;;;8.50;99322.00;;;;5052540;28;20203;-76
2023/01/18 11:19:27;;;;;;;6.47;4.53;;;;;8.60;99321.00;;;;5051500;28;20203;-76
2023/01/18 11:21:55;;;;;;;7.03;5.13;;;;;8.70;99320.00;;;;5052899;28;20223;-76
2023/01/18 11:24:26;;;;;;;6.55;4.57;;;;;8.70;99317.00;;;;5050822;28;20407;-75
2023/01/18 11:26:57;;;;;;;6.63;4.78;;;;;8.70;99319.00;;;;5057343;28;20683;-75
2023/01/18 11:29:28;;;;;;;7.80;5.00;;;;;8.80;99325.00;;;;5058087;28;20199;-76
2023/01/18 11:32:00;;;;;;;6.60;4.95;;;;;8.90;99333.00;;;;5054990;28;20602;-75
2023/01/18 11:34:31;;;;;;;7.03;5.30;;;;;8.90;99323.00;;;;5062136;28;20601;-75
2023/01/18 11:37:00;;;;;;;7.00;4.82;;;;;9.00;99335.00;;;;5057450;28;20725;-76
2023/01/18 11:39:29;;;;;;;8.73;4.95;;;;;9.00;99330.00;;;;5056573;28;20882;-75
2023/01/18 11:42:21;;;;;;;8.70;5.40;;;;;9.00;99334.00;;;;5055859;28;20216;-75
2023/01/18 11:45:03;;;;;;;6.50;4.72;;;;;9.10;99329.00;;;;5050415;28;20196;-76
2023/01/18 11:47:39;;;;;;;8.48;4.72;;;;;9.10;99328.00;;;;5050321;28;20230;-75
2023/01/18 11:50:29;;;;;;;6.60;4.32;;;;;9.10;99323.00;;;;5051232;28;20515;-75
2023/01/18 11:53:04;;;;;;;6.05;4.30;;;;;9.20;99332.00;;;;5051085;28;20219;-75
2023/01/18 11:55:35;;;;;;;6.22;5.03;;;;;9.30;99334.00;;;;5059849;28;20226;-76
2023/01/18 11:58:04;;;;;;;7.55;5.13;;;;;9.40;99336.00;;;;5058691;28;20692;-75
2023/01/18 12:00:40;;;;;;;6.25;4.53;;;;;9.40;99341.00;;;;5070497;28;20586;-76
2023/01/18 12:03:45;;;;;;;7.78;5.10;;;;;9.40;99334.00;;;;5070546;28;20202;-75
2023/01/18 12:06:26;;;;;;;6.30;4.55;;;;;9.40;99340.00;;;;5069645;28;20228;-75
2023/01/18 12:09:15;;;;;;;6.35;4.22;;;;;9.40;99341.00;;;;5070104;28;20209;-75
2023/01/18 12:11:50;;;;;;;6.30;4.05;;;;;9.60;99335.00;;;;5056635;28;20208;-75
2023/01/18 12:14:33;;;;;;;8.70;4.28;;;;;9.60;99337.00;;;;5051479;28;20655;-75
2023/01/18 12:17:14;;;;;;;7.28;4.60;;;;;9.60;99330.00;;;;5070176;28;20203;-75
2023/01/18 12:19:50;;;;;;;7.88;4.40;;;;;9.70;99341.00;;;;5069913;28;20210;-75
2023/01/18 12:22:55;;;;;;;6.70;4.50;;;;;9.70;99345.00;;;;5070046;28;20217;-76
2023/01/18 12:25:38;;;;;;;7.18;4.50;;;;;9.90;99336.00;;;;5064941;28;20684;-75
2023/01/18 12:28:13;;;;;;;6.05;3.90;;;;;9.90;99349.00;;;;5049140;28;20192;-75
2023/01/18 12:30:54;;;;;;;6.68;3.58;;;;;9.90;99345.00;;;;5049844;28;20277;-75
2023/01/18 12:33:35;;;;;;;4.72;3.72;;;;;10.00;99344.00;;;;5050340;28;20316;-75
2023/01/18 12:36:13;;;;;;;4.53;3.95;;;;;10.00;99334.00;;;;5050460;28;20199;-75
2023/01/18 12:38:48;;;;;;;3.67;3.03;;;;;10.10;99336.00;;;;5050404;28;20203;-76
2023/01/18 12:41:32;;;;;;;5.60;3.67;;;;;10.10;99333.00;;;;5064455;28;20214;-75
2023/01/18 12:44:18;;;;;;;4.40;3.42;;;;;10.20;99337.00;;;;5070211;28;20195;-75
2023/01/18 12:46:52;;;;;;;4.90;3.08;;;;;10.20;99330.00;;;;5057420;28;20227;-75
2023/01/18 12:49:21;;;;;;;5.70;3.40;;;;;10.30;99324.00;;;;5049605;28;20207;-75
2023/01/18 12:51:54;;;;;;;4.38;2.78;;;;;10.40;99323.00;;;;5057767;28;20318;-75
2023/01/18 12:54:30;;;;;;;4.65;3.20;;;;;10.40;99330.00;;;;5056027;28;20222;-76
2023/01/18 12:56:59;;;;;;;5.13;2.58;;;;;10.50;99333.00;;;;5065712;28;20198;-75
2023/01/18 12:59:31;;;;;;;4.25;2.83;;;;;10.60;99338.00;;;;5048516;28;20196;-76
2023/01/18 13:02:05;;;;;;;5.28;2.97;;;;;10.60;99333.00;;;;5049473;28;20195;-75
2023/01/18 13:04:43;;;;;;;4.68;3.05;;;;;10.70;99346.00;;;;5048731;28;20554;-75
2023/01/18 13:07:15;;;;;;;3.85;2.63;;;;;10.80;99348.00;;;;5048869;28;20587;-76
2023/01/18 13:09:49;;;;;;;3.28;2.40;;;;;11.00;99344.00;;;;5048359;28;20203;-75
2023/01/18 13:12:17;;;;;;;4.10;2.25;;;;;11.20;99348.00;;;;5048991;28;20561;-76
2023/01/18 13:14:51;;;;;;;5.70;2.80;;;;;11.30;99345.00;;;;5047908;28;20220;-77
2023/01/18 13:17:22;;;;;;;4.55;2.80;;;;;11.50;99341.00;;;;5048861;28;20207;-75